Time;durP1;ratioP1;P1;durP2;ratioP2;P2;SDS_P1;SDS_P2;PMS_P1;PMS_P2;Temp;Humidity;BMP_temperature;BMP_pressure;BME280_temperature;BME280_humidity;BME280_pressure;Samples;Min_cycle;Max_cycle;Signal;HPM_P1;HPM_P2
2021/07/06 00:04:31;;;;;;;18.92;5.20;;;;;;;;;;10289956;28;20126;-77
2021/07/06 00:09:32;;;;;;;629.25;21.38;;;;;;;;;;10288497;28;20093;-77
2021/07/06 00:14:34;;;;;;;14.38;3.50;;;;;;;;;;10288810;28;20055;-77
2021/07/06 00:19:36;;;;;;;1024.28;38.03;;;;;;;;;;10288385;28;20141;-77
2021/07/06 00:24:37;;;;;;;1053.05;35.90;;;;;;;;;;10289057;28;20078;-77
2021/07/06 00:29:39;;;;;;;1040.63;30.77;;;;;;;;;;10288700;28;20130;-77
2021/07/06 00:34:40;;;;;;;736.65;19.90;;;;;;;;;;10287892;28;20055;-77
2021/07/06 00:39:42;;;;;;;491.13;17.60;;;;;;;;;;10289184;28;20057;-77
2021/07/06 00:44:45;;;;;;;672.63;23.77;;;;;;;;;;10288316;28;20138;-77
2021/07/06 00:49:47;;;;;;;216.90;11.45;;;;;;;;;;10286000;28;20093;-77
2021/07/06 00:54:48;;;;;;;52.42;5.10;;;;;;;;;;10288437;28;20137;-77
2021/07/06 00:59:50;;;;;;;373.33;17.70;;;;;;;;;;10287587;28;20134;-77
2021/07/06 01:04:52;;;;;;;420.92;17.90;;;;;;;;;;10287066;28;20121;-77
2021/07/06 01:09:54;;;;;;;338.65;12.05;;;;;;;;;;10285811;28;20133;-77
2021/07/06 01:14:55;;;;;;;306.30;13.90;;;;;;;;;;10287873;28;20094;-77
2021/07/06 01:19:58;;;;;;;671.63;24.58;;;;;;;;;;10286125;28;20053;-77
2021/07/06 01:25:01;;;;;;;500.83;19.70;;;;;;;;;;10286062;28;20174;-77
2021/07/06 01:30:04;;;;;;;672.42;16.02;;;;;;;;;;10287029;28;20061;-77
2021/07/06 01:35:06;;;;;;;590.95;17.52;;;;;;;;;;10286395;28;20062;-77
2021/07/06 01:40:08;;;;;;;522.53;22.10;;;;;;;;;;10285751;28;20475;-77
2021/07/06 01:45:11;;;;;;;134.23;11.48;;;;;;;;;;10300977;28;20563;-77
2021/07/06 01:50:16;;;;;;;72.78;6.32;;;;;;;;;;10284896;28;20046;-77
2021/07/06 01:55:23;;;;;;;34.55;6.47;;;;;;;;;;10285128;28;20141;-77
2021/07/06 02:00:26;;;;;;;49.05;8.57;;;;;;;;;;10285380;28;20093;-77
2021/07/06 02:05:47;;;;;;;63.90;8.25;;;;;;;;;;10291977;28;20075;-77
2021/07/06 02:10:50;;;;;;;275.58;17.77;;;;;;;;;;10291870;28;20141;-77
2021/07/06 02:15:53;;;;;;;440.95;18.80;;;;;;;;;;10291718;28;20059;-77
2021/07/06 02:20:56;;;;;;;35.25;7.03;;;;;;;;;;10289688;28;20142;-77
2021/07/06 02:25:59;;;;;;;263.88;11.80;;;;;;;;;;10291794;28;20078;-77
2021/07/06 02:31:02;;;;;;;136.95;8.15;;;;;;;;;;10290892;28;20427;-77
2021/07/06 02:36:06;;;;;;;113.72;10.45;;;;;;;;;;10290825;28;20616;-77
2021/07/06 02:41:07;;;;;;;14.13;5.80;;;;;;;;;;10290660;28;20577;-77
2021/07/06 02:46:10;;;;;;;52.38;5.78;;;;;;;;;;10305987;28;20081;-77
2021/07/06 02:51:16;;;;;;;77.78;8.75;;;;;;;;;;10273117;28;20058;-77
2021/07/06 02:56:20;;;;;;;17.85;5.47;;;;;;;;;;10290530;28;20078;-77
2021/07/06 03:01:22;;;;;;;10.32;5.15;;;;;;;;;;10290594;28;20169;-77
2021/07/06 03:06:23;;;;;;;402.23;17.33;;;;;;;;;;10284962;28;20102;-77
2021/07/06 03:11:25;;;;;;;67.35;6.10;;;;;;;;;;10284342;28;20093;-77
2021/07/06 03:16:27;;;;;;;13.18;4.80;;;;;;;;;;10298709;28;20091;-77
2021/07/06 03:21:28;;;;;;;9.38;4.75;;;;;;;;;;10281368;28;20560;-77
2021/07/06 03:26:30;;;;;;;177.88;11.05;;;;;;;;;;10281789;28;20121;-77
2021/07/06 03:31:31;;;;;;;228.27;17.80;;;;;;;;;;10284394;28;20163;-77
2021/07/06 03:36:33;;;;;;;307.75;8.52;;;;;;;;;;10291258;28;20057;-77
2021/07/06 03:41:34;;;;;;;188.88;8.55;;;;;;;;;;10290998;28;20098;-77
2021/07/06 03:46:36;;;;;;;268.02;15.07;;;;;;;;;;10290814;28;20130;-77
2021/07/06 03:51:38;;;;;;;642.78;18.42;;;;;;;;;;10272434;28;20755;-77
2021/07/06 03:56:39;;;;;;;329.92;12.25;;;;;;;;;;10290206;28;20083;-77
2021/07/06 04:01:41;;;;;;;296.52;14.60;;;;;;;;;;10288754;28;20086;-77
2021/07/06 04:06:43;;;;;;;181.23;10.57;;;;;;;;;;10290015;28;20047;-77
2021/07/06 04:11:44;;;;;;;86.10;8.48;;;;;;;;;;10289280;28;20129;-77
2021/07/06 04:16:46;;;;;;;176.00;6.47;;;;;;;;;;10289376;28;20138;-77
2021/07/06 04:21:47;;;;;;;30.50;4.35;;;;;;;;;;10288456;28;20050;-77
2021/07/06 04:26:49;;;;;;;8.77;4.10;;;;;;;;;;10271991;28;20082;-77
2021/07/06 04:31:51;;;;;;;62.10;4.90;;;;;;;;;;10288510;28;20097;-77
2021/07/06 04:36:53;;;;;;;13.38;4.05;;;;;;;;;;10288933;28;20516;-77
2021/07/06 04:41:54;;;;;;;8.85;3.30;;;;;;;;;;10288382;28;20050;-77
2021/07/06 04:46:56;;;;;;;8.40;2.72;;;;;;;;;;10287666;28;20093;-77
2021/07/06 04:51:57;;;;;;;6.20;2.70;;;;;;;;;;10270742;28;20054;-77
2021/07/06 04:56:59;;;;;;;9.88;2.35;;;;;;;;;;10287863;28;20082;-77
2021/07/06 05:02:01;;;;;;;7.28;2.58;;;;;;;;;;10287304;28;20130;-77
2021/07/06 05:07:03;;;;;;;7.95;2.47;;;;;;;;;;10286657;28;20069;-77
2021/07/06 05:12:04;;;;;;;13.10;3.60;;;;;;;;;;10286078;28;20125;-76
2021/07/06 05:17:06;;;;;;;7.20;2.72;;;;;;;;;;10286326;28;20134;-76
2021/07/06 05:22:08;;;;;;;13.00;3.33;;;;;;;;;;10291836;28;20049;-76
2021/07/06 05:27:09;;;;;;;9.93;4.10;;;;;;;;;;10268601;28;20082;-76
2021/07/06 05:32:11;;;;;;;11.57;3.90;;;;;;;;;;10285735;28;20054;-76
2021/07/06 05:37:13;;;;;;;11.00;4.32;;;;;;;;;;10269000;28;20134;-76
2021/07/06 05:42:15;;;;;;;15.00;5.03;;;;;;;;;;10307220;28;20122;-76
2021/07/06 05:47:16;;;;;;;10.52;4.38;;;;;;;;;;10269231;28;20090;-76
2021/07/06 05:52:18;;;;;;;7.82;4.40;;;;;;;;;;10260664;28;20078;-76
2021/07/06 05:57:29;;;;;;;12.93;4.93;;;;;;;;;;10274850;28;20046;-76
2021/07/06 06:02:30;;;;;;;13.63;5.10;;;;;;;;;;10284489;28;20477;-76
2021/07/06 06:07:39;;;;;;;17.88;6.78;;;;;;;;;;10285852;28;20075;-76
2021/07/06 06:12:41;;;;;;;14.90;5.38;;;;;;;;;;10285638;28;20078;-76
2021/07/06 06:17:42;;;;;;;10.48;5.57;;;;;;;;;;10284815;28;20496;-76
2021/07/06 06:22:45;;;;;;;11.95;5.70;;;;;;;;;;10284554;28;20051;-76
2021/07/06 06:27:47;;;;;;;17.90;6.35;;;;;;;;;;10284646;28;20085;-76
2021/07/06 06:32:51;;;;;;;13.40;6.85;;;;;;;;;;10283853;28;20550;-76
2021/07/06 06:37:52;;;;;;;11.90;5.70;;;;;;;;;;10284110;28;20062;-77
2021/07/06 06:42:54;;;;;;;12.05;6.07;;;;;;;;;;10284569;28;20078;-77
2021/07/06 06:47:56;;;;;;;14.95;6.57;;;;;;;;;;10284185;28;20491;-77
2021/07/06 06:52:57;;;;;;;14.05;6.43;;;;;;;;;;10282879;28;20117;-77
2021/07/06 06:57:59;;;;;;;8.15;5.22;;;;;;;;;;10283897;28;20138;-77
2021/07/06 07:03:00;;;;;;;20.05;10.63;;;;;;;;;;10283894;28;20082;-77
2021/07/06 07:08:02;;;;;;;16.52;6.82;;;;;;;;;;10286480;28;20051;-77
2021/07/06 07:13:04;;;;;;;13.25;7.32;;;;;;;;;;10292141;28;20086;-77
2021/07/06 07:18:06;;;;;;;12.43;6.13;;;;;;;;;;10274929;28;20133;-77
2021/07/06 07:23:12;;;;;;;13.23;7.55;;;;;;;;;;10286236;28;20051;-77
2021/07/06 07:28:20;;;;;;;13.00;6.30;;;;;;;;;;10285140;28;20749;-77
2021/07/06 07:33:22;;;;;;;10.65;5.03;;;;;;;;;;10292526;28;20137;-77
2021/07/06 07:38:24;;;;;;;12.32;7.53;;;;;;;;;;10300095;28;20093;-77
2021/07/06 07:43:26;;;;;;;11.65;6.93;;;;;;;;;;10302867;28;20061;-77
2021/07/06 07:48:27;;;;;;;9.10;4.45;;;;;;;;;;10293649;28;20157;-77
2021/07/06 07:53:29;;;;;;;31.35;8.82;;;;;;;;;;10271785;28;20113;-77
2021/07/06 07:58:30;;;;;;;19.48;6.20;;;;;;;;;;10283929;28;20158;-77
2021/07/06 08:03:32;;;;;;;19.80;8.07;;;;;;;;;;10303505;28;20088;-77
2021/07/06 08:08:34;;;;;;;12.00;6.72;;;;;;;;;;10290274;28;20128;-77
2021/07/06 08:13:35;;;;;;;8.40;3.70;;;;;;;;;;10308610;28;20144;-77
2021/07/06 08:18:38;;;;;;;12.85;3.97;;;;;;;;;;10287225;28;20572;-77
2021/07/06 08:23:39;;;;;;;5.60;2.80;;;;;;;;;;10287734;28;20078;-77
2021/07/06 08:28:43;;;;;;;7.78;3.00;;;;;;;;;;10270215;28;20158;-77
2021/07/06 08:33:44;;;;;;;11.50;5.25;;;;;;;;;;10286788;28;20535;-77
2021/07/06 08:38:46;;;;;;;16.63;6.50;;;;;;;;;;10286360;28;20137;-77
2021/07/06 08:43:48;;;;;;;12.20;5.80;;;;;;;;;;10285868;28;20130;-77
2021/07/06 08:48:50;;;;;;;12.90;6.13;;;;;;;;;;10286584;28;20086;-76
2021/07/06 08:53:52;;;;;;;9.23;5.32;;;;;;;;;;10286150;28;20436;-75
2021/07/06 08:58:54;;;;;;;9.00;3.83;;;;;;;;;;10286161;28;20051;-75
2021/07/06 09:03:57;;;;;;;6.47;3.50;;;;;;;;;;10284677;28;20070;-75
2021/07/06 09:09:20;;;;;;;7.80;4.00;;;;;;;;;;10287249;28;20113;-75
2021/07/06 09:14:27;;;;;;;8.45;3.88;;;;;;;;;;10282933;28;20094;-75
2021/07/06 09:19:29;;;;;;;6.75;3.00;;;;;;;;;;10277915;28;20057;-75
2021/07/06 09:24:31;;;;;;;6.10;2.47;;;;;;;;;;10280172;28;20059;-75
2021/07/06 09:29:32;;;;;;;5.25;2.10;;;;;;;;;;10280661;28;20081;-75
2021/07/06 09:34:36;;;;;;;3.42;1.92;;;;;;;;;;10290753;28;20137;-76
2021/07/06 09:39:39;;;;;;;6.57;2.30;;;;;;;;;;10300188;28;20114;-76
2021/07/06 09:44:42;;;;;;;3.90;1.90;;;;;;;;;;10294357;28;20124;-75
2021/07/06 09:49:54;;;;;;;5.72;2.22;;;;;;;;;;10286479;28;20117;-75
2021/07/06 09:54:55;;;;;;;6.65;2.50;;;;;;;;;;10294280;28;20071;-75
2021/07/06 10:00:05;;;;;;;4.20;2.22;;;;;;;;;;10294608;28;20105;-75
2021/07/06 10:05:08;;;;;;;;;;;;;;;;;;10290413;28;20090;-75
2021/07/06 10:10:14;;;;;;;8.15;2.10;;;;;;;;;;10291798;28;19961;-76
2021/07/06 10:15:17;;;;;;;8.13;2.05;;;;;;;;;;10297099;28;20086;-76
2021/07/06 10:20:25;;;;;;;4.82;1.63;;;;;;;;;;10278191;28;20420;-75
2021/07/06 10:25:28;;;;;;;4.90;1.50;;;;;;;;;;10284256;28;20062;-75
2021/07/06 10:30:31;;;;;;;2.20;1.42;;;;;;;;;;10274724;28;20121;-75
2021/07/06 10:35:35;;;;;;;2.50;1.40;;;;;;;;;;10296219;28;20059;-75
2021/07/06 10:40:42;;;;;;;3.85;1.30;;;;;;;;;;10281241;28;20536;-75
2021/07/06 10:45:44;;;;;;;1.70;1.30;;;;;;;;;;10283411;28;20098;-74
2021/07/06 10:50:47;;;;;;;2.35;1.30;;;;;;;;;;10281942;28;20086;-75
2021/07/06 10:56:00;;;;;;;3.95;1.48;;;;;;;;;;10277891;28;20386;-75
2021/07/06 11:01:02;;;;;;;7.25;1.30;;;;;;;;;;10278556;28;20141;-75
2021/07/06 11:06:03;;;;;;;2.60;1.45;;;;;;;;;;10275606;28;20105;-76
2021/07/06 11:11:05;;;;;;;2.15;1.38;;;;;;;;;;10277416;28;20142;-75
2021/07/06 11:16:27;;;;;;;5.35;1.42;;;;;;;;;;10280120;28;20091;-75
2021/07/06 11:21:30;;;;;;;1.80;1.30;;;;;;;;;;10278613;28;20122;-75
2021/07/06 11:26:43;;;;;;;2.90;1.30;;;;;;;;;;10278434;28;20055;-75
2021/07/06 11:32:03;;;;;;;3.88;1.45;;;;;;;;;;10278108;28;20141;-75
2021/07/06 11:37:06;;;;;;;4.30;1.45;;;;;;;;;;10271111;28;20419;-75
2021/07/06 11:42:08;;;;;;;4.20;1.35;;;;;;;;;;10276762;28;20055;-75
2021/07/06 11:47:14;;;;;;;1.75;1.20;;;;;;;;;;10276716;28;20512;-75
2021/07/06 11:52:17;;;;;;;2.30;1.30;;;;;;;;;;10277582;28;20146;-75
2021/07/06 11:57:23;;;;;;;3.97;1.30;;;;;;;;;;10297427;28;20081;-76
2021/07/06 12:02:24;;;;;;;2.53;1.30;;;;;;;;;;10325493;28;20070;-75
2021/07/06 12:07:26;;;;;;;2.92;1.30;;;;;;;;;;10325048;28;20082;-76
2021/07/06 12:12:28;;;;;;;2.97;1.20;;;;;;;;;;10326975;28;20141;-75
2021/07/06 12:17:30;;;;;;;3.00;1.20;;;;;;;;;;10326170;28;20142;-75
2021/07/06 12:22:32;;;;;;;4.18;1.45;;;;;;;;;;10321997;28;20046;-76
2021/07/06 12:27:34;;;;;;;3.75;1.30;;;;;;;;;;10325900;28;20459;-76
2021/07/06 12:32:35;;;;;;;2.15;1.20;;;;;;;;;;10322990;28;20137;-75
2021/07/06 12:37:37;;;;;;;4.38;1.42;;;;;;;;;;10325594;28;20089;-76
2021/07/06 12:42:40;;;;;;;1.60;1.20;;;;;;;;;;10323311;28;20408;-76
2021/07/06 12:47:42;;;;;;;3.13;1.40;;;;;;;;;;10324913;28;20152;-76
2021/07/06 12:52:48;;;;;;;2.72;1.40;;;;;;;;;;10325007;28;20050;-76
2021/07/06 12:57:51;;;;;;;1.85;1.20;;;;;;;;;;10324448;28;20141;-75
2021/07/06 13:03:09;;;;;;;2.42;1.30;;;;;;;;;;10325036;28;20050;-76
2021/07/06 13:08:19;;;;;;;1.58;1.20;;;;;;;;;;10321087;28;20050;-75
2021/07/06 13:13:23;;;;;;;3.10;1.13;;;;;;;;;;10321618;28;20558;-75
2021/07/06 13:24:28;;;;;;;2.70;1.10;;;;;;;;;;10323329;28;20046;-75
2021/07/06 13:29:30;;;;;;;6.82;1.58;;;;;;;;;;10323211;28;20484;-75
2021/07/06 13:34:32;;;;;;;7.28;1.20;;;;;;;;;;10323398;28;20125;-75
2021/07/06 13:39:53;;;;;;;3.08;1.40;;;;;;;;;;10318019;28;20054;-75
2021/07/06 13:44:55;;;;;;;1.73;1.08;;;;;;;;;;10322691;28;20078;-75
2021/07/06 13:49:56;;;;;;;2.90;1.17;;;;;;;;;;10322328;28;20138;-75
2021/07/06 13:54:59;;;;;;;2.63;1.02;;;;;;;;;;10321683;28;20141;-75
2021/07/06 14:00:01;;;;;;;3.10;1.23;;;;;;;;;;10322693;28;20093;-75
2021/07/06 14:05:03;;;;;;;3.38;1.23;;;;;;;;;;10325216;28;20108;-76
2021/07/06 14:10:07;;;;;;;3.08;1.10;;;;;;;;;;10320895;28;20474;-76
2021/07/06 14:15:09;;;;;;;3.50;1.20;;;;;;;;;;10321104;28;20909;-75
2021/07/06 14:20:12;;;;;;;2.40;1.05;;;;;;;;;;10321865;28;20477;-75
2021/07/06 14:25:14;;;;;;;2.28;1.10;;;;;;;;;;10320892;28;20097;-75
2021/07/06 14:30:16;;;;;;;2.55;1.17;;;;;;;;;;10321769;28;20077;-75
2021/07/06 14:35:17;;;;;;;2.67;1.00;;;;;;;;;;10321138;28;20050;-75
2021/07/06 14:40:19;;;;;;;2.95;1.10;;;;;;;;;;10295219;28;20133;-75
2021/07/06 14:45:21;;;;;;;5.13;1.20;;;;;;;;;;10296109;28;20050;-75
2021/07/06 14:50:22;;;;;;;2.33;1.05;;;;;;;;;;10296034;28;20094;-75
2021/07/06 14:55:24;;;;;;;3.95;1.20;;;;;;;;;;10279560;28;20051;-75
2021/07/06 15:00:30;;;;;;;3.30;1.17;;;;;;;;;;10280181;28;20548;-75
2021/07/06 15:05:32;;;;;;;4.30;1.30;;;;;;;;;;10294838;28;20109;-75
2021/07/06 15:10:34;;;;;;;4.47;1.13;;;;;;;;;;10278656;28;20055;-75
2021/07/06 15:15:35;;;;;;;2.10;1.00;;;;;;;;;;10280785;28;20424;-75
2021/07/06 15:20:37;;;;;;;2.17;1.02;;;;;;;;;;10280175;28;20516;-75
2021/07/06 15:25:39;;;;;;;2.88;1.10;;;;;;;;;;10289233;28;20133;-74
2021/07/06 15:30:41;;;;;;;1.92;1.02;;;;;;;;;;10289345;28;20398;-75
2021/07/06 15:35:43;;;;;;;3.58;1.10;;;;;;;;;;10296429;28;20129;-75
2021/07/06 15:40:44;;;;;;;5.78;1.00;;;;;;;;;;10325788;28;20054;-74
2021/07/06 15:45:46;;;;;;;6.63;1.17;;;;;;;;;;10324758;28;20070;-75
2021/07/06 15:50:48;;;;;;;2.22;1.10;;;;;;;;;;10330345;28;20052;-75
2021/07/06 15:55:50;;;;;;;2.30;0.93;;;;;;;;;;10327684;28;20078;-75
2021/07/06 16:00:51;;;;;;;3.15;1.08;;;;;;;;;;10327072;28;20157;-76
2021/07/06 16:05:54;;;;;;;4.63;1.13;;;;;;;;;;10330515;28;20070;-74
2021/07/06 16:10:55;;;;;;;2.90;1.00;;;;;;;;;;10334798;28;20077;-74
2021/07/06 16:15:57;;;;;;;2.67;1.00;;;;;;;;;;10342867;28;20104;-74
2021/07/06 16:20:59;;;;;;;4.35;1.33;;;;;;;;;;10328109;28;20046;-74
2021/07/06 16:26:00;;;;;;;5.13;0.93;;;;;;;;;;10340713;28;20097;-75
2021/07/06 16:31:02;;;;;;;4.07;1.10;;;;;;;;;;10327948;28;20142;-75
2021/07/06 16:36:05;;;;;;;4.72;1.20;;;;;;;;;;10341578;28;20106;-75
2021/07/06 16:41:08;;;;;;;2.88;1.10;;;;;;;;;;10322941;28;20600;-75
2021/07/06 16:46:10;;;;;;;8.30;1.45;;;;;;;;;;10310534;28;20138;-75
